createdAt,value
2023-02-04T00:01:15.536Z,3.59
2023-02-04T00:04:19.306Z,3.55
2023-02-04T00:07:25.474Z,3.50
2023-02-04T00:10:29.672Z,3.44
2023-02-04T00:13:34.625Z,3.38
2023-02-04T00:16:38.001Z,3.30
2023-02-04T00:19:42.920Z,3.22
2023-02-04T00:22:47.558Z,3.17
2023-02-04T00:25:50.853Z,3.15
2023-02-04T00:28:55.727Z,3.15
2023-02-04T00:32:02.441Z,3.14
2023-02-04T00:35:17.419Z,3.14
2023-02-04T00:38:27.994Z,3.12
2023-02-04T00:41:33.832Z,3.12
2023-02-04T00:44:43.981Z,3.05
2023-02-04T00:47:48.100Z,3.01
2023-02-04T00:50:51.224Z,2.96
2023-02-04T00:53:59.672Z,2.96
2023-02-04T00:57:03.068Z,2.90
2023-02-04T01:00:12.051Z,2.86
2023-02-04T01:03:17.387Z,2.86
2023-02-04T01:06:23.520Z,2.88
2023-02-04T01:09:27.893Z,2.82
2023-02-04T01:12:31.247Z,2.81
2023-02-04T01:15:39.640Z,2.76
2023-02-04T01:18:43.171Z,2.72
2023-02-04T01:21:48.037Z,2.67
2023-02-04T01:24:51.211Z,2.62
2023-02-04T01:28:13.056Z,2.59
2023-02-04T01:31:17.905Z,2.57
2023-02-04T01:34:21.316Z,2.52
2023-02-04T01:37:27.684Z,2.48
2023-02-04T01:40:34.441Z,2.43
2023-02-04T01:43:37.603Z,2.43
2023-02-04T01:46:42.160Z,2.39
2023-02-04T01:49:45.622Z,2.34
2023-02-04T01:52:49.905Z,2.29
2023-02-04T01:55:54.294Z,2.24
2023-02-04T01:58:59.398Z,2.22
2023-02-04T02:02:04.112Z,2.19
2023-02-04T02:05:08.501Z,2.17
2023-02-04T02:08:15.573Z,2.14
2023-02-04T02:11:18.952Z,2.15
2023-02-04T02:14:22.582Z,2.18
2023-02-04T02:17:29.210Z,2.17
2023-02-04T02:20:33.138Z,2.17
2023-02-04T02:23:48.389Z,2.22
2023-02-04T02:26:56.088Z,2.24
2023-02-04T02:30:01.207Z,2.25
2023-02-04T02:33:06.167Z,2.19
2023-02-04T02:36:10.298Z,2.13
2023-02-04T02:39:16.186Z,2.06
2023-02-04T02:42:20.682Z,2.06
2023-02-04T02:45:30.587Z,2.02
2023-02-04T02:48:34.026Z,2.01
2023-02-04T02:51:37.620Z,1.93
2023-02-04T02:54:43.702Z,1.91
2023-02-04T02:57:50.734Z,1.83
2023-02-04T03:00:56.730Z,1.81
2023-02-04T03:04:02.731Z,1.79
2023-02-04T03:07:06.809Z,1.73
2023-02-04T03:10:13.683Z,1.67
2023-02-04T03:13:18.315Z,1.66
2023-02-04T03:16:21.835Z,1.67
2023-02-04T03:19:26.795Z,1.66
2023-02-04T03:22:32.435Z,1.63
2023-02-04T03:25:37.858Z,1.59
2023-02-04T03:28:41.876Z,1.56
2023-02-04T03:31:46.179Z,1.52
2023-02-04T03:34:49.451Z,1.50
2023-02-04T03:37:52.850Z,1.48
2023-02-04T03:40:57.441Z,1.44
2023-02-04T03:44:01.620Z,1.44
2023-02-04T03:47:04.744Z,1.41
2023-02-04T03:50:08.331Z,1.35
2023-02-04T03:53:12.982Z,1.34
2023-02-04T03:56:17.570Z,1.34
2023-02-04T03:59:20.960Z,1.35
2023-02-04T04:02:24.439Z,1.31
2023-02-04T04:05:28.618Z,1.33
2023-02-04T04:08:34.850Z,1.28
2023-02-04T04:11:39.316Z,1.29
2023-02-04T04:14:42.496Z,1.34
2023-02-04T04:17:45.748Z,1.38
2023-02-04T04:20:48.815Z,1.42
2023-02-04T04:23:51.885Z,1.43
2023-02-04T04:26:59.044Z,1.45
2023-02-04T04:30:02.524Z,1.48
2023-02-04T04:33:05.875Z,1.47
2023-02-04T04:36:09.530Z,1.45
2023-02-04T04:39:12.592Z,1.44
2023-02-04T04:42:17.337Z,1.39
2023-02-04T04:45:21.362Z,1.39
2023-02-04T04:48:25.534Z,1.40
2023-02-04T04:51:31.815Z,1.33
2023-02-04T04:54:35.002Z,1.31
2023-02-04T04:57:39.935Z,1.30
2023-02-04T05:00:43.116Z,1.26
2023-02-04T05:03:47.953Z,1.22
2023-02-04T05:06:51.054Z,1.23
2023-02-04T05:09:54.135Z,1.21
2023-02-04T05:12:58.463Z,1.18
2023-02-04T05:16:01.657Z,1.17
2023-02-04T05:19:04.809Z,1.15
2023-02-04T05:22:07.932Z,1.13
2023-02-04T05:25:11.356Z,1.11
2023-02-04T05:28:16.035Z,1.08
2023-02-04T05:31:19.196Z,1.06
2023-02-04T05:34:24.699Z,1.00
2023-02-04T05:37:30.063Z,1.02
2023-02-04T05:40:33.637Z,1.03
2023-02-04T05:43:38.238Z,1.04
2023-02-04T05:46:41.332Z,1.02
2023-02-04T05:49:44.951Z,1.01
2023-02-04T05:52:48.062Z,0.98
2023-02-04T05:55:51.169Z,0.97
2023-02-04T05:58:56.053Z,0.99
2023-02-04T06:01:59.490Z,0.93
2023-02-04T06:05:02.586Z,0.90
2023-02-04T06:08:06.621Z,0.89
2023-02-04T06:11:09.933Z,0.85
2023-02-04T06:14:14.502Z,0.84
2023-02-04T06:17:17.647Z,0.78
2023-02-04T06:20:21.130Z,0.79
2023-02-04T06:23:26.656Z,0.77
2023-02-04T06:26:30.902Z,0.73
2023-02-04T06:29:35.419Z,0.71
2023-02-04T06:32:43.467Z,0.69
2023-02-04T06:35:46.829Z,0.67
2023-02-04T06:38:50.485Z,0.69
2023-02-04T06:41:53.495Z,0.72
2023-02-04T06:44:58.178Z,0.68
2023-02-04T06:48:01.230Z,0.64
2023-02-04T06:51:04.776Z,0.61
2023-02-04T06:54:08.187Z,0.60
2023-02-04T06:57:12.312Z,0.60
2023-02-04T07:00:17.369Z,0.68
2023-02-04T07:03:20.407Z,0.63
2023-02-04T07:06:23.457Z,0.66
2023-02-04T07:09:27.440Z,0.62
2023-02-04T07:12:30.775Z,0.59
2023-02-04T07:15:35.405Z,0.59
2023-02-04T07:18:38.556Z,0.57
2023-02-04T07:21:41.695Z,0.60
2023-02-04T07:24:44.827Z,0.65
2023-02-04T07:27:48.032Z,0.62
2023-02-04T07:30:53.039Z,0.63
2023-02-04T07:33:56.816Z,0.64
2023-02-04T07:36:59.963Z,0.64
2023-02-04T07:40:03.237Z,0.68
2023-02-04T07:43:06.357Z,0.68
2023-02-04T07:46:13.063Z,0.69
2023-02-04T07:49:17.163Z,0.74
2023-02-04T07:52:20.653Z,0.77
2023-02-04T07:55:23.881Z,0.80
2023-02-04T07:58:27.048Z,0.84
2023-02-04T08:01:34.042Z,0.90
2023-02-04T08:04:38.049Z,0.96
2023-02-04T08:07:41.786Z,0.99
2023-02-04T08:10:49.938Z,1.05
2023-02-04T08:13:53.505Z,1.09
2023-02-04T08:16:58.187Z,1.12
2023-02-04T08:20:01.473Z,1.19
2023-02-04T08:23:04.752Z,1.23
2023-02-04T08:26:08.199Z,1.26
2023-02-04T08:29:11.849Z,1.26
2023-02-04T08:32:16.738Z,1.31
2023-02-04T08:35:20.080Z,1.35
2023-02-04T08:38:26.409Z,1.41
2023-02-04T08:41:29.585Z,1.48
2023-02-04T08:44:35.102Z,1.50
2023-02-04T08:47:39.912Z,1.60
2023-02-04T08:50:43.488Z,1.65
2023-02-04T08:53:46.603Z,1.65
2023-02-04T08:56:49.959Z,1.76
2023-02-04T08:59:53.304Z,1.78
2023-02-04T09:02:57.980Z,1.86
2023-02-04T09:06:01.075Z,2.03
2023-02-04T09:09:04.466Z,2.06
2023-02-04T09:12:07.876Z,2.11
2023-02-04T09:15:12.560Z,2.10
2023-02-04T09:18:19.088Z,2.07
2023-02-04T09:21:22.347Z,2.22
2023-02-04T09:24:25.588Z,2.17
2023-02-04T09:27:28.622Z,2.20
2023-02-04T09:30:34.787Z,2.26
2023-02-04T09:33:39.832Z,2.39
2023-02-04T09:36:43.212Z,2.50
2023-02-04T09:39:46.885Z,2.42
2023-02-04T09:42:51.691Z,2.45
2023-02-04T09:45:55.975Z,2.45
2023-02-04T09:49:03.441Z,2.56
2023-02-04T09:52:11.977Z,2.66
2023-02-04T09:55:17.103Z,2.62
2023-02-04T09:58:22.808Z,2.64
2023-02-04T10:01:28.208Z,2.76
2023-02-04T10:04:33.879Z,2.75
2023-02-04T10:07:36.996Z,2.78
2023-02-04T10:10:40.922Z,2.83
2023-02-04T10:13:47.763Z,2.74
2023-02-04T10:16:58.633Z,2.88
2023-02-04T10:20:04.159Z,2.92
2023-02-04T10:23:12.865Z,2.94
2023-02-04T10:26:29.652Z,3.01
2023-02-04T10:29:33.027Z,3.09
2023-02-04T10:32:36.640Z,3.26
2023-02-04T10:35:48.229Z,3.29
2023-02-04T10:39:01.370Z,3.35
2023-02-04T10:42:06.300Z,3.17
2023-02-04T10:45:24.617Z,3.17
2023-02-04T10:48:30.142Z,3.27
2023-02-04T10:51:35.018Z,3.31
2023-02-04T10:54:40.003Z,3.33
2023-02-04T10:57:47.696Z,3.21
2023-02-04T11:00:51.136Z,3.35
2023-02-04T11:03:57.506Z,3.41
2023-02-04T11:07:02.468Z,3.44
2023-02-04T11:10:06.540Z,3.49
2023-02-04T11:13:28.420Z,3.81
2023-02-04T11:16:35.732Z,4.08
2023-02-04T11:19:40.933Z,3.86
2023-02-04T11:22:49.512Z,3.76
2023-02-04T11:26:08.633Z,3.50
2023-02-04T11:29:30.082Z,3.32
2023-02-04T11:32:37.887Z,3.43
2023-02-04T11:36:14.859Z,3.78
2023-02-04T11:39:20.001Z,4.12
2023-02-04T11:42:28.892Z,4.14
2023-02-04T11:45:36.264Z,4.41
2023-02-04T11:48:41.588Z,4.06
2023-02-04T11:51:46.643Z,3.72
2023-02-04T11:55:01.235Z,3.69
2023-02-04T11:58:05.454Z,3.66
2023-02-04T12:01:21.178Z,3.62
2023-02-04T12:04:26.291Z,3.57
2023-02-04T12:07:35.875Z,3.44
2023-02-04T12:10:44.652Z,3.57
2023-02-04T12:13:52.242Z,3.66
2023-02-04T12:16:56.490Z,3.64
2023-02-04T12:20:00.718Z,3.56
2023-02-04T12:23:04.373Z,3.56
2023-02-04T12:26:09.077Z,3.47
2023-02-04T12:29:12.261Z,3.47
2023-02-04T12:32:15.700Z,3.30
2023-02-04T12:35:19.598Z,3.33
2023-02-04T12:38:23.443Z,3.39
2023-02-04T12:41:28.409Z,3.40
2023-02-04T12:44:32.115Z,3.28
2023-02-04T12:47:35.294Z,3.25
2023-02-04T12:50:39.418Z,3.22
2023-02-04T12:53:42.525Z,3.24
2023-02-04T12:56:49.342Z,3.18
2023-02-04T12:59:52.409Z,3.23
2023-02-04T13:02:55.991Z,3.22
2023-02-04T13:05:59.609Z,3.22
2023-02-04T13:09:06.512Z,3.28
2023-02-04T13:12:16.486Z,3.26
2023-02-04T13:15:22.861Z,3.28
2023-02-04T13:18:28.711Z,3.25
2023-02-04T13:21:32.305Z,3.24
2023-02-04T13:24:39.964Z,3.32
2023-02-04T13:27:46.127Z,3.23
2023-02-04T13:30:49.651Z,3.13
2023-02-04T13:33:52.820Z,3.22
2023-02-04T13:36:56.021Z,3.31
2023-02-04T13:39:59.071Z,3.30
2023-02-04T13:43:03.462Z,3.30
2023-02-04T13:46:06.679Z,3.32
2023-02-04T13:49:09.863Z,3.51
2023-02-04T13:52:13.475Z,3.48
2023-02-04T13:55:16.675Z,3.67
2023-02-04T13:58:21.076Z,3.75
2023-02-04T14:01:24.179Z,3.81
2023-02-04T14:04:27.632Z,4.04
2023-02-04T14:07:31.159Z,3.99
2023-02-04T14:10:38.555Z,3.89
2023-02-04T14:13:43.373Z,3.73
2023-02-04T14:16:46.405Z,3.66
2023-02-04T14:19:49.451Z,3.52
2023-02-04T14:22:52.511Z,3.34
2023-02-04T14:25:55.584Z,3.31
2023-02-04T14:28:59.985Z,3.21
2023-02-04T14:32:03.327Z,3.13
2023-02-04T14:35:08.920Z,3.04
2023-02-04T14:38:13.393Z,2.95
2023-02-04T14:41:19.989Z,2.92
2023-02-04T14:44:25.732Z,2.89
2023-02-04T14:47:29.094Z,2.90
2023-02-04T14:50:32.595Z,2.86
2023-02-04T14:53:36.020Z,2.88
2023-02-04T14:56:39.289Z,2.93
2023-02-04T14:59:44.148Z,2.94
2023-02-04T15:02:47.730Z,2.90
2023-02-04T15:05:50.810Z,2.87
2023-02-04T15:08:54.133Z,2.83
2023-02-04T15:11:57.579Z,2.81
2023-02-04T15:15:02.105Z,2.75
2023-02-04T15:18:06.051Z,2.78
2023-02-04T15:21:09.171Z,2.74
2023-02-04T15:24:29.272Z,2.66
2023-02-04T15:27:44.082Z,2.64
2023-02-04T15:30:48.847Z,2.63
2023-02-04T15:33:53.717Z,2.60
2023-02-04T15:36:57.010Z,2.53
2023-02-04T15:40:03.738Z,2.47
2023-02-04T15:43:09.952Z,2.42
2023-02-04T15:46:17.008Z,2.35
2023-02-04T15:49:31.671Z,2.35
2023-02-04T15:52:35.032Z,2.28
2023-02-04T15:55:38.232Z,2.24
2023-02-04T15:58:41.380Z,2.17
2023-02-04T16:01:46.109Z,2.07
2023-02-04T16:04:50.258Z,2.05
2023-02-04T16:07:53.436Z,2.02
2023-02-04T16:10:56.581Z,2.01
2023-02-04T16:14:00.117Z,1.93
2023-02-04T16:17:07.001Z,1.88
2023-02-04T16:20:12.084Z,1.86
2023-02-04T16:23:15.486Z,1.77
2023-02-04T16:26:28.207Z,1.73
2023-02-04T16:29:32.426Z,1.71
2023-02-04T16:32:37.129Z,1.76
2023-02-04T16:35:59.929Z,1.71
2023-02-04T16:39:05.936Z,1.68
2023-02-04T16:42:10.077Z,1.63
2023-02-04T16:45:13.559Z,1.58
2023-02-04T16:48:21.345Z,1.53
2023-02-04T16:51:24.928Z,1.45
2023-02-04T16:54:28.577Z,1.42
2023-02-04T16:57:31.936Z,1.36
2023-02-04T17:00:36.047Z,1.26
2023-02-04T17:03:43.068Z,1.19
2023-02-04T17:06:47.664Z,1.13
2023-02-04T17:09:52.519Z,1.05
2023-02-04T17:12:56.233Z,0.96
2023-02-04T17:16:01.955Z,0.93
2023-02-04T17:19:24.326Z,0.93
2023-02-04T17:22:39.734Z,0.85
2023-02-04T17:25:52.909Z,0.85
2023-02-04T17:28:59.295Z,0.77
2023-02-04T17:32:19.798Z,0.72
2023-02-04T17:35:27.725Z,0.69
2023-02-04T17:38:31.800Z,0.57
2023-02-04T17:41:36.115Z,0.51
2023-02-04T17:44:40.973Z,0.50
2023-02-04T17:47:50.691Z,0.40
2023-02-04T17:50:57.594Z,0.44
2023-02-04T17:54:01.587Z,0.40
2023-02-04T17:57:20.970Z,0.27
2023-02-04T18:00:33.364Z,0.28
2023-02-04T18:03:37.982Z,0.22
2023-02-04T18:06:50.237Z,0.18
2023-02-04T18:09:54.024Z,0.14
2023-02-04T18:12:58.249Z,0.11
2023-02-04T18:16:11.787Z,0.07
2023-02-04T18:19:21.470Z,0.04
2023-02-04T18:22:28.568Z,-0.02
2023-02-04T18:25:35.209Z,-0.07
2023-02-04T18:28:47.821Z,-0.12
2023-02-04T18:32:02.879Z,-0.19
2023-02-04T18:35:44.117Z,-0.19
2023-02-04T18:38:52.400Z,-0.18
2023-02-04T18:41:59.908Z,-0.20
2023-02-04T18:45:24.238Z,-0.29
2023-02-04T18:49:09.390Z,-0.30
2023-02-04T18:52:19.996Z,-0.37
2023-02-04T18:55:34.845Z,-0.38
2023-02-04T18:59:27.476Z,-0.42
2023-02-04T19:02:48.533Z,-0.49
2023-02-04T19:06:06.331Z,-0.57
2023-02-04T19:09:19.558Z,-0.61
2023-02-04T19:12:24.310Z,-0.67
2023-02-04T19:15:42.807Z,-0.70
2023-02-04T19:18:47.036Z,-0.67
2023-02-04T19:21:53.513Z,-0.70
2023-02-04T19:25:59.991Z,-0.80
2023-02-04T19:29:42.675Z,-0.78
2023-02-04T19:32:55.885Z,-0.88
2023-02-04T19:36:03.312Z,-0.94
2023-02-04T19:39:30.715Z,-0.93
2023-02-04T19:42:37.024Z,-0.92
2023-02-04T19:46:02.590Z,-0.96
2023-02-04T19:49:25.107Z,-1.04
2023-02-04T19:52:37.605Z,-1.00
2023-02-04T19:55:44.197Z,-1.01
2023-02-04T19:58:47.675Z,-1.03
2023-02-04T20:02:01.908Z,-1.03
2023-02-04T20:05:20.230Z,-1.12
2023-02-04T20:08:48.129Z,-1.17
2023-02-04T20:12:06.082Z,-1.19
2023-02-04T20:15:18.621Z,-1.27
2023-02-04T20:18:29.794Z,-1.28
2023-02-04T20:21:36.781Z,-1.27
2023-02-04T20:24:44.934Z,-1.27
2023-02-04T20:27:52.466Z,-1.32
2023-02-04T20:30:56.671Z,-1.36
2023-02-04T20:34:01.694Z,-1.40
2023-02-04T20:37:16.277Z,-1.44
2023-02-04T20:40:29.998Z,-1.42
2023-02-04T20:43:37.525Z,-1.40
2023-02-04T20:46:42.738Z,-1.41
2023-02-04T20:50:01.398Z,-1.44
2023-02-04T20:53:31.818Z,-1.48
2023-02-04T20:56:42.641Z,-1.57
2023-02-04T20:59:49.512Z,-1.56
2023-02-04T21:02:58.182Z,-1.57
2023-02-04T21:06:17.409Z,-1.53
2023-02-04T21:17:07.149Z,-1.52
2023-02-04T21:20:27.076Z,-1.55
2023-02-04T21:23:37.734Z,-1.57
2023-02-04T21:26:46.618Z,-1.67
2023-02-04T21:29:55.009Z,-1.72
2023-02-04T21:33:05.533Z,-1.77
2023-02-04T21:36:15.142Z,-1.80
2023-02-04T21:39:21.693Z,-1.77
2023-02-04T21:42:26.199Z,-1.77
2023-02-04T21:45:40.912Z,-1.77
2023-02-04T21:48:47.966Z,-1.78
2023-02-04T21:51:52.654Z,-1.81
2023-02-04T21:55:33.799Z,-1.83
2023-02-04T21:58:53.122Z,-1.83
2023-02-04T22:02:19.417Z,-1.88
2023-02-04T22:05:28.635Z,-1.94
2023-02-04T22:08:37.179Z,-2.05
2023-02-04T22:11:43.268Z,-2.08
2023-02-04T22:14:48.341Z,-2.16
2023-02-04T22:18:00.194Z,-2.10
2023-02-04T22:21:13.405Z,-2.09
2023-02-04T22:24:18.838Z,-2.14
2023-02-04T22:27:26.006Z,-2.09
2023-02-04T22:30:39.541Z,-2.09
2023-02-04T22:34:02.779Z,-2.08
2023-02-04T22:37:18.729Z,-2.05
2023-02-04T22:40:23.130Z,-2.07
2023-02-04T22:43:41.003Z,-2.03
2023-02-04T22:46:47.347Z,-2.03
2023-02-04T22:49:50.839Z,-2.01
2023-02-04T22:52:57.043Z,-2.01
2023-02-04T22:56:00.392Z,-1.98
2023-02-04T22:59:06.282Z,-2.00
2023-02-04T23:02:12.493Z,-2.00
2023-02-04T23:05:16.074Z,-2.02
2023-02-04T23:08:19.502Z,-2.01
2023-02-04T23:11:25.083Z,-1.98
2023-02-04T23:14:29.747Z,-1.97
2023-02-04T23:17:33.507Z,-1.90
2023-02-04T23:20:41.772Z,-1.88
2023-02-04T23:23:45.323Z,-1.86
2023-02-04T23:26:48.825Z,-1.82
2023-02-04T23:29:54.275Z,-1.83
2023-02-04T23:32:58.617Z,-1.88
2023-02-04T23:36:09.333Z,-1.87
2023-02-04T23:39:13.377Z,-1.94
2023-02-04T23:42:17.271Z,-1.93
2023-02-04T23:45:22.598Z,-1.89
2023-02-04T23:48:25.990Z,-1.90
2023-02-04T23:51:29.440Z,-1.93
2023-02-04T23:54:32.727Z,-1.96
2023-02-04T23:57:36.375Z,-1.95
